Time;durP1;ratioP1;P1;durP2;ratioP2;P2;SDS_P1;SDS_P2;PMS_P1;PMS_P2;Temp;Humidity;BMP_temperature;BMP_pressure;BME280_temperature;BME280_humidity;BME280_pressure;Samples;Min_cycle;Max_cycle;Signal;HPM_P1;HPM_P2
2021/08/06 00:00:07;;;;;;;8.38;5.28;;;;;;;18.47;63.37;99481.16;5032378;28;20487;-51
2021/08/06 00:02:32;;;;;;;6.53;5.40;;;;;;;18.44;63.48;99470.69;5032317;28;20458;-46
2021/08/06 00:04:58;;;;;;;9.25;5.45;;;;;;;18.44;63.11;99467.97;5032766;28;20029;-49
2021/08/06 00:07:24;;;;;;;10.73;5.65;;;;;;;18.43;63.31;99474.41;5038049;28;20021;-46
2021/08/06 00:09:50;;;;;;;11.65;6.00;;;;;;;18.40;63.60;99472.06;5052349;28;20037;-46
2021/08/06 00:12:16;;;;;;;8.55;5.80;;;;;;;18.34;63.92;99467.41;5052660;28;20025;-48
2021/08/06 00:14:42;;;;;;;8.15;6.00;;;;;;;18.31;64.05;99470.44;5052304;28;20420;-45
2021/08/06 00:17:07;;;;;;;12.00;5.85;;;;;;;18.30;63.90;99474.19;5052255;28;20151;-46
2021/08/06 00:19:33;;;;;;;13.38;6.15;;;;;;;18.27;64.25;99461.88;5052179;28;20029;-48
2021/08/06 00:21:59;;;;;;;11.27;5.55;;;;;;;18.28;63.98;99462.69;5052533;28;20071;-48
2021/08/06 00:24:24;;;;;;;8.68;5.72;;;;;;;18.30;63.92;99458.78;5050686;28;20025;-46
2021/08/06 00:26:50;;;;;;;8.68;5.85;;;;;;;18.24;64.18;99450.53;5051335;28;20039;-44
2021/08/06 00:29:15;;;;;;;8.77;5.57;;;;;;;18.22;64.28;99451.56;5052192;28;20048;-48
2021/08/06 00:31:40;;;;;;;9.32;6.40;;;;;;;18.22;64.55;99446.16;5052043;28;20036;-48
2021/08/06 00:34:06;;;;;;;10.73;6.82;;;;;;;18.20;64.40;99445.50;5051855;28;20036;-46
2021/08/06 00:36:32;;;;;;;9.50;6.53;;;;;;;18.16;64.55;99436.03;5052139;28;20056;-43
2021/08/06 00:38:58;;;;;;;11.25;6.60;;;;;;;18.18;64.35;99434.00;5052914;28;20376;-43
2021/08/06 00:41:24;;;;;;;9.30;6.75;;;;;;;18.17;64.37;99418.75;5039058;28;20022;-50
2021/08/06 00:43:49;;;;;;;12.15;6.85;;;;;;;18.22;64.42;99418.22;5031649;28;20033;-46
2021/08/06 00:46:16;;;;;;;10.30;6.70;;;;;;;18.22;64.44;99426.34;5031809;28;20069;-52
2021/08/06 00:48:46;;;;;;;11.30;7.00;;;;;;;18.28;64.16;99438.31;5032093;28;20060;-48
2021/08/06 00:51:12;;;;;;;9.88;6.88;;;;;;;18.25;64.22;99427.84;5031893;28;20063;-47
2021/08/06 00:53:38;;;;;;;8.93;7.05;;;;;;;18.18;64.61;99425.88;5031604;28;20104;-45
2021/08/06 00:56:06;;;;;;;9.70;6.95;;;;;;;18.19;64.70;99432.97;5031346;28;20072;-48
2021/08/06 00:58:31;;;;;;;9.68;6.88;;;;;;;18.18;64.81;99436.72;5041991;28;20033;-46
2021/08/06 01:00:57;;;;;;;10.15;7.28;;;;;;;18.10;65.11;99438.63;5051295;28;20032;-48
2021/08/06 01:03:28;;;;;;;11.32;7.00;;;;;;;18.13;65.08;99451.81;5051431;28;20025;-47
2021/08/06 01:06:13;;;;;;;11.30;7.13;;;;;;;18.14;64.82;99440.81;5051117;28;20076;-48
2021/08/06 01:09:01;;;;;;;10.55;7.63;;;;;;;18.16;64.79;99443.31;5051088;28;20116;-44
2021/08/06 01:11:30;;;;;;;13.45;7.68;;;;;;;18.02;65.25;99447.66;5051057;28;20065;-49
2021/08/06 01:13:57;;;;;;;10.00;7.10;;;;;;;17.94;65.85;99446.69;5049847;28;20052;-46
2021/08/06 01:16:31;;;;;;;10.80;7.85;;;;;;;17.95;65.76;99452.94;5049103;28;20044;-46
2021/08/06 01:19:06;;;;;;;11.10;6.85;;;;;;;17.89;66.26;99440.97;5050605;28;20049;-47
2021/08/06 01:21:48;;;;;;;10.95;6.93;;;;;;;17.96;65.81;99440.25;5051087;28;20039;-44
2021/08/06 01:24:18;;;;;;;12.98;7.32;;;;;;;17.91;65.79;99432.66;5050908;28;20033;-46
2021/08/06 01:26:45;;;;;;;9.75;7.35;;;;;;;17.90;66.29;99434.53;5051040;28;20021;-47
2021/08/06 01:29:11;;;;;;;10.50;7.28;;;;;;;17.90;66.31;99434.53;5050758;28;20087;-49
2021/08/06 01:31:37;;;;;;;11.48;7.20;;;;;;;17.90;66.39;99429.13;5051173;28;20029;-49
2021/08/06 01:34:03;;;;;;;11.75;8.02;;;;;;;17.92;66.20;99432.50;5049407;28;20029;-45
2021/08/06 01:36:28;;;;;;;11.52;7.22;;;;;;;17.96;66.13;99418.59;5051281;28;20082;-46
2021/08/06 01:38:54;;;;;;;9.63;7.45;;;;;;;17.95;66.24;99409.59;5050866;28;20089;-47
2021/08/06 01:41:43;;;;;;;10.02;7.32;;;;;;;18.05;65.38;99415.66;5051247;28;20110;-51
2021/08/06 01:44:15;;;;;;;10.30;7.35;;;;;;;18.02;65.68;99418.72;5051178;28;20032;-48
2021/08/06 01:46:59;;;;;;;11.98;8.48;;;;;;;17.90;66.48;99423.72;5050863;28;20112;-46
2021/08/06 01:49:35;;;;;;;13.85;8.27;;;;;;;17.98;66.13;99433.63;5051062;28;20044;-49
2021/08/06 01:52:11;;;;;;;12.00;9.45;;;;;;;18.00;66.28;99436.16;5049014;28;20079;-49
2021/08/06 01:54:39;;;;;;;10.00;8.35;;;;;;;18.00;66.39;99418.03;5050858;28;20037;-57
2021/08/06 01:57:06;;;;;;;10.20;7.47;;;;;;;18.10;66.25;99422.38;5051172;28;20033;-48
2021/08/06 01:59:32;;;;;;;15.93;8.23;;;;;;;18.12;66.16;99414.91;5051259;28;20021;-50
2021/08/06 02:01:58;;;;;;;13.73;7.28;;;;;;;18.19;65.91;99418.56;5050854;28;20039;-47
2021/08/06 02:04:27;;;;;;;9.82;7.43;;;;;;;18.26;65.65;99407.84;5048742;28;20021;-47
2021/08/06 02:06:53;;;;;;;11.38;8.38;;;;;;;18.31;65.61;99416.25;5049269;28;20120;-45
2021/08/06 02:09:21;;;;;;;11.50;7.57;;;;;;;18.31;65.47;99416.25;5034114;28;20156;-52
2021/08/06 02:11:47;;;;;;;17.65;7.75;;;;;;;18.37;65.54;99407.41;5028729;28;20128;-46
2021/08/06 02:14:15;;;;;;;14.90;7.95;;;;;;;18.46;65.26;99419.00;5031888;28;20068;-45
2021/08/06 02:16:42;;;;;;;11.05;7.68;;;;;;;18.46;65.18;99410.88;5033322;28;20038;-47
2021/08/06 02:19:12;;;;;;;12.63;8.05;;;;;;;18.54;65.18;99410.78;5033708;28;20041;-61
2021/08/06 02:21:39;;;;;;;14.73;7.70;;;;;;;18.56;65.10;99407.84;5034744;28;20095;-48
2021/08/06 02:24:08;;;;;;;13.13;8.10;;;;;;;18.61;64.92;99402.75;5034553;28;20418;-45
2021/08/06 02:26:36;;;;;;;12.80;8.13;;;;;;;18.67;64.73;99398.41;5044396;28;20431;-44
2021/08/06 02:29:04;;;;;;;11.63;7.65;;;;;;;18.76;64.32;99397.31;5054316;28;20067;-45
2021/08/06 02:31:30;;;;;;;11.75;8.13;;;;;;;18.73;64.45;99374.13;5054062;28;20041;-44
2021/08/06 02:33:56;;;;;;;9.63;7.53;;;;;;;18.80;64.10;99372.31;5054385;28;20037;-45
2021/08/06 02:36:22;;;;;;;12.20;7.65;;;;;;;18.79;64.16;99354.38;5054365;28;20032;-46
2021/08/06 02:38:48;;;;;;;11.85;8.15;;;;;;;18.80;64.27;99361.47;5054074;28;20434;-46
2021/08/06 02:41:13;;;;;;;12.32;7.70;;;;;;;18.86;64.15;99365.31;5053990;28;20029;-48
2021/08/06 02:43:40;;;;;;;14.10;7.97;;;;;;;18.91;63.91;99371.00;5052589;28;20112;-48
2021/08/06 02:46:06;;;;;;;13.23;8.27;;;;;;;18.92;63.87;99369.97;5054324;28;20111;-46
2021/08/06 02:48:32;;;;;;;15.15;8.05;;;;;;;18.91;63.65;99373.72;5054336;28;20110;-44
2021/08/06 02:50:57;;;;;;;12.93;7.90;;;;;;;18.96;63.55;99367.72;5053521;28;20032;-45
2021/08/06 02:53:23;;;;;;;13.40;8.02;;;;;;;18.98;63.72;99365.69;5053905;28;20037;-48
2021/08/06 02:55:48;;;;;;;13.45;8.18;;;;;;;19.01;63.37;99368.03;5053888;28;20466;-44
2021/08/06 02:58:14;;;;;;;11.77;8.00;;;;;;;19.07;63.41;99363.72;5053767;28;20488;-49
2021/08/06 03:00:39;;;;;;;11.90;8.35;;;;;;;19.15;63.23;99368.19;5050449;28;20024;-46
2021/08/06 03:03:05;;;;;;;13.30;7.95;;;;;;;19.17;63.05;99366.13;5033315;28;20030;-46
2021/08/06 03:05:30;;;;;;;11.25;8.02;;;;;;;19.18;62.92;99365.09;5033797;28;20041;-45
2021/08/06 03:07:56;;;;;;;11.10;7.70;;;;;;;19.20;62.97;99371.16;5033424;28;20080;-47
2021/08/06 03:10:22;;;;;;;12.10;8.00;;;;;;;19.26;62.84;99378.53;5033225;28;20075;-50
2021/08/06 03:12:49;;;;;;;13.75;7.85;;;;;;;19.33;62.66;99376.75;5033542;28;20021;-47
2021/08/06 03:15:16;;;;;;;11.23;7.50;;;;;;;19.37;62.61;99377.19;5033631;28;20053;-47
2021/08/06 03:17:42;;;;;;;13.63;8.05;;;;;;;19.41;62.59;99377.66;5035117;28;20410;-50
2021/08/06 03:20:14;;;;;;;10.02;8.02;;;;;;;19.53;62.42;99378.81;5052810;28;20059;-45
2021/08/06 03:22:41;;;;;;;11.45;8.30;;;;;;;19.55;62.29;99370.47;5053446;28;20032;-47
2021/08/06 03:25:08;;;;;;;13.27;8.38;;;;;;;19.57;62.12;99377.41;5052467;28;20035;-45
2021/08/06 03:27:34;;;;;;;13.98;8.32;;;;;;;19.62;61.92;99380.38;5053296;28;20033;-46
2021/08/06 03:30:00;;;;;;;10.35;8.02;;;;;;;19.68;61.88;99386.06;5052848;28;20025;-45
2021/08/06 03:32:26;;;;;;;13.20;8.35;;;;;;;19.76;61.49;99385.91;5051946;28;20469;-45
2021/08/06 03:34:51;;;;;;;15.45;8.52;;;;;;;19.79;61.34;99380.13;5053086;28;20075;-46
2021/08/06 03:37:17;;;;;;;11.40;8.50;;;;;;;19.79;61.39;99380.13;5052772;28;20060;-43
2021/08/06 03:39:43;;;;;;;13.68;8.90;;;;;;;19.86;60.89;99381.00;5053147;28;20107;-50
2021/08/06 03:42:08;;;;;;;12.85;8.02;;;;;;;20.00;60.65;99375.69;5053096;28;20029;-46
2021/08/06 03:44:34;;;;;;;13.70;8.13;;;;;;;20.16;60.40;99378.13;5052428;28;20366;-45
2021/08/06 03:46:59;;;;;;;12.50;8.93;;;;;;;20.32;59.61;99376.16;5050890;28;20040;-47
2021/08/06 03:49:25;;;;;;;12.32;7.95;;;;;;;20.54;58.68;99386.97;5052810;28;20072;-49
2021/08/06 03:51:50;;;;;;;12.60;8.23;;;;;;;20.72;58.15;99384.53;5056794;28;20124;-45
2021/08/06 03:54:16;;;;;;;15.68;8.85;;;;;;;20.88;57.77;99375.25;5070403;28;20097;-51
2021/08/06 03:56:41;;;;;;;14.77;9.15;;;;;;;21.02;57.32;99370.69;5071492;28;20023;-46
2021/08/06 03:59:07;;;;;;;11.98;8.73;;;;;;;21.13;56.89;99371.16;5072507;28;20109;-46
2021/08/06 04:01:33;;;;;;;15.45;8.32;;;;;;;21.20;56.98;99374.72;5066446;28;20037;-47
2021/08/06 04:03:58;;;;;;;14.23;8.48;;;;;;;21.31;56.61;99368.69;5039448;28;20041;-50
2021/08/06 04:06:23;;;;;;;13.98;8.90;;;;;;;21.42;56.09;99360.94;5052344;28;20037;-49
2021/08/06 04:08:49;;;;;;;14.15;8.88;;;;;;;21.49;56.04;99359.94;5052332;28;20021;-52
2021/08/06 04:11:14;;;;;;;15.93;9.25;;;;;;;21.50;55.87;99360.78;5052540;28;20128;-59
2021/08/06 04:13:40;;;;;;;15.95;9.02;;;;;;;21.58;55.79;99354.28;5052010;28;20116;-48
2021/08/06 04:16:05;;;;;;;11.60;9.05;;;;;;;21.59;55.59;99356.78;5052082;28;20045;-46
2021/08/06 04:18:31;;;;;;;12.27;8.43;;;;;;;21.54;55.93;99353.88;5050514;28;20128;-45
2021/08/06 04:20:57;;;;;;;14.23;9.35;;;;;;;21.56;55.66;99365.38;5052282;28;20029;-45
2021/08/06 04:23:23;;;;;;;16.33;9.18;;;;;;;21.59;55.53;99362.25;5052278;28;20033;-51
2021/08/06 04:25:50;;;;;;;9.95;8.63;;;;;;;21.70;55.40;99354.53;5051974;28;20388;-50
2021/08/06 04:28:15;;;;;;;12.75;10.00;;;;;;;21.86;55.33;99350.56;5052247;28;20055;-57
2021/08/06 04:30:41;;;;;;;13.82;8.90;;;;;;;22.00;54.65;99360.41;5052509;28;20024;-46
2021/08/06 04:33:07;;;;;;;14.43;8.90;;;;;;;22.20;54.38;99354.09;5050367;28;20036;-50
2021/08/06 04:35:32;;;;;;;13.18;8.40;;;;;;;22.35;53.80;99360.16;5051311;28;20346;-51
2021/08/06 04:37:58;;;;;;;12.07;8.77;;;;;;;22.45;53.17;99359.72;5051603;28;20350;-48
2021/08/06 04:40:25;;;;;;;13.27;9.38;;;;;;;22.40;53.02;99342.31;5052107;28;20488;-48
2021/08/06 04:42:50;;;;;;;11.32;10.10;;;;;;;22.71;52.68;99366.19;5052016;28;20110;-48
2021/08/06 04:45:16;;;;;;;17.23;9.82;;;;;;;22.90;52.28;99374.50;5052068;28;20079;-49
2021/08/06 04:47:43;;;;;;;12.00;9.65;;;;;;;22.98;51.64;99379.72;5051739;28;20112;-57
2021/08/06 04:50:10;;;;;;;16.83;9.52;;;;;;;22.92;51.75;99381.44;5050330;28;20473;-45
2021/08/06 04:52:35;;;;;;;14.07;9.95;;;;;;;22.88;52.03;99372.00;5051503;28;20033;-48
2021/08/06 04:55:01;;;;;;;13.07;10.38;;;;;;;22.92;51.96;99372.41;5051647;28;20039;-49
2021/08/06 04:57:26;;;;;;;14.52;9.32;;;;;;;23.09;51.25;99376.31;5051922;28;20028;-45
2021/08/06 04:59:52;;;;;;;15.23;9.90;;;;;;;23.30;50.86;99382.53;5051701;28;20115;-47
2021/08/06 05:02:17;;;;;;;17.90;9.57;;;;;;;23.38;50.59;99384.19;5051998;28;20109;-48
2021/08/06 05:04:42;;;;;;;20.38;9.98;;;;;;;23.37;50.55;99380.59;5049910;28;20111;-50
2021/08/06 05:07:15;;;;;;;22.70;10.73;;;;;;;23.33;51.00;99386.72;5051465;28;20033;-50
2021/08/06 05:09:40;;;;;;;16.30;10.43;;;;;;;23.03;51.56;99387.25;5051603;28;20029;-49
2021/08/06 05:12:06;;;;;;;13.55;9.65;;;;;;;22.99;52.16;99392.31;5051245;28;20100;-48
2021/08/06 05:14:31;;;;;;;14.32;9.52;;;;;;;23.14;51.32;99383.00;5049826;28;20052;-47
2021/08/06 05:16:57;;;;;;;16.45;10.00;;;;;;;23.27;51.00;99387.59;5051310;28;20108;-47
2021/08/06 05:19:22;;;;;;;14.27;9.30;;;;;;;23.42;50.95;99377.22;5048093;28;20033;-48
2021/08/06 05:21:48;;;;;;;14.45;9.82;;;;;;;23.55;50.54;99381.75;5051450;28;20087;-46
2021/08/06 05:24:13;;;;;;;14.73;9.65;;;;;;;23.73;49.86;99389.19;5051360;28;20029;-46
2021/08/06 05:26:39;;;;;;;14.70;10.02;;;;;;;23.96;49.36;99390.50;5050824;28;20035;-46
2021/08/06 05:29:04;;;;;;;19.65;9.85;;;;;;;24.22;48.81;99373.06;5051274;28;20029;-48
2021/08/06 05:31:30;;;;;;;14.48;10.45;;;;;;;24.49;47.80;99374.69;5051113;28;20040;-49
2021/08/06 05:33:55;;;;;;;17.88;10.35;;;;;;;24.66;47.37;99377.66;5050836;28;20033;-48
2021/08/06 05:36:21;;;;;;;15.23;11.10;;;;;;;24.66;47.40;99372.19;5049438;28;20035;-51
2021/08/06 05:38:46;;;;;;;17.98;10.10;;;;;;;24.65;47.14;99379.56;5051104;28;20036;-45
2021/08/06 05:41:12;;;;;;;16.92;10.63;;;;;;;24.51;47.73;99373.38;5051101;28;20036;-46
2021/08/06 05:43:37;;;;;;;13.90;10.50;;;;;;;24.41;47.88;99364.88;5051066;28;20048;-50
2021/08/06 05:46:03;;;;;;;17.48;10.23;;;;;;;24.42;47.89;99368.44;5050764;28;20029;-47
2021/08/06 05:48:28;;;;;;;16.27;10.10;;;;;;;24.33;48.23;99376.09;5054834;28;20492;-46
2021/08/06 05:50:54;;;;;;;18.67;10.50;;;;;;;24.15;48.53;99366.81;5053240;28;20040;-47
2021/08/06 05:53:21;;;;;;;15.35;10.05;;;;;;;24.02;48.82;99372.41;5055097;28;20028;-50
2021/08/06 05:55:46;;;;;;;18.73;10.30;;;;;;;24.01;48.96;99376.16;5055088;28;20058;-48
2021/08/06 05:58:12;;;;;;;19.83;9.70;;;;;;;24.08;49.22;99375.06;5054646;28;20037;-47
2021/08/06 06:00:37;;;;;;;17.02;10.80;;;;;;;24.10;49.09;99372.09;5054992;28;20033;-45
2021/08/06 06:03:03;;;;;;;17.15;10.88;;;;;;;24.07;49.21;99356.16;5054580;28;20029;-46
2021/08/06 06:05:28;;;;;;;18.55;10.93;;;;;;;23.99;49.20;99365.44;5054403;28;20064;-47
2021/08/06 06:07:53;;;;;;;20.85;12.13;;;;;;;23.81;49.82;99363.50;5053720;28;20029;-47
2021/08/06 06:10:21;;;;;;;21.98;11.48;;;;;;;23.76;50.11;99374.25;5054885;28;20089;-50
2021/08/06 06:12:46;;;;;;;18.75;10.65;;;;;;;23.73;49.74;99372.78;5054852;28;20029;-48
2021/08/06 06:15:12;;;;;;;19.63;11.43;;;;;;;23.69;49.95;99373.47;5054484;28;20123;-47
2021/08/06 06:17:38;;;;;;;21.52;11.10;;;;;;;23.60;49.62;99375.63;5054690;28;20071;-47
2021/08/06 06:20:05;;;;;;;20.15;12.45;;;;;;;23.50;49.76;99376.94;5052841;28;20476;-50
2021/08/06 06:22:31;;;;;;;17.42;11.55;;;;;;;23.35;50.22;99382.72;5052282;28;20029;-48
2021/08/06 06:24:56;;;;;;;18.08;11.38;;;;;;;23.22;50.19;99363.66;5053745;28;20035;-46
2021/08/06 06:27:21;;;;;;;16.98;11.18;;;;;;;23.28;50.35;99357.34;5053258;28;20039;-46
2021/08/06 06:29:47;;;;;;;19.98;10.32;;;;;;;23.51;50.43;99369.59;5054565;28;20036;-47
2021/08/06 06:32:12;;;;;;;22.23;11.50;;;;;;;23.68;49.65;99375.34;5054020;28;20033;-49
2021/08/06 06:34:38;;;;;;;22.60;11.48;;;;;;;23.80;48.88;99379.06;5053974;28;20029;-49
2021/08/06 06:37:03;;;;;;;21.25;11.95;;;;;;;23.78;48.78;99377.59;5052405;28;20044;-44
2021/08/06 06:39:29;;;;;;;18.75;10.85;;;;;;;23.70;48.57;99381.44;5054040;28;20040;-50
2021/08/06 06:41:54;;;;;;;19.40;11.82;;;;;;;23.68;49.01;99371.81;5053760;28;20037;-48
2021/08/06 06:44:20;;;;;;;21.67;11.32;;;;;;;23.69;49.19;99378.94;5053019;28;20040;-51
2021/08/06 06:46:45;;;;;;;19.73;11.13;;;;;;;23.68;48.93;99372.63;5054026;28;20025;-49
2021/08/06 06:49:12;;;;;;;17.52;10.30;;;;;;;23.79;48.69;99373.81;5053909;28;20364;-52
2021/08/06 06:51:37;;;;;;;14.23;9.65;;;;;;;23.98;48.08;99374.69;5053471;28;20436;-46
2021/08/06 06:54:03;;;;;;;21.88;11.07;;;;;;;24.02;47.99;99380.59;5052068;28;20064;-49
2021/08/06 06:56:28;;;;;;;20.75;11.05;;;;;;;23.78;48.35;99362.06;5052526;28;20040;-47
2021/08/06 06:58:54;;;;;;;21.50;10.32;;;;;;;23.86;48.15;99373.75;5051629;28;20032;-61
2021/08/06 07:01:19;;;;;;;26.38;10.18;;;;;;;23.95;47.82;99366.94;5053845;28;20492;-46
2021/08/06 07:03:45;;;;;;;19.65;10.50;;;;;;;24.08;47.80;99369.59;5053741;28;20377;-48
2021/08/06 07:06:11;;;;;;;26.02;11.38;;;;;;;24.16;47.71;99376.69;5053717;28;20044;-49
2021/08/06 07:08:39;;;;;;;21.50;11.50;;;;;;;24.24;47.04;99375.56;5051651;28;20464;-46
2021/08/06 07:11:05;;;;;;;24.15;11.23;;;;;;;24.36;46.83;99378.41;5053391;28;20120;-46
2021/08/06 07:13:31;;;;;;;20.05;11.13;;;;;;;24.45;46.76;99376.19;5053039;28;20110;-46
2021/08/06 07:15:57;;;;;;;24.58;12.05;;;;;;;24.42;47.01;99373.91;5044347;28;20049;-47
2021/08/06 07:18:22;;;;;;;28.92;10.75;;;;;;;24.42;47.24;99377.50;5042299;28;20045;-49
2021/08/06 07:20:48;;;;;;;22.83;12.60;;;;;;;24.43;47.01;99368.22;5043849;28;20112;-47
2021/08/06 07:23:13;;;;;;;20.00;10.52;;;;;;;24.54;46.93;99369.38;5041073;28;20080;-46
2021/08/06 07:25:39;;;;;;;20.00;10.63;;;;;;;24.62;46.72;99365.50;5042690;28;20476;-49
2021/08/06 07:28:04;;;;;;;23.27;10.05;;;;;;;24.74;46.65;99365.59;5041701;28;20061;-51
2021/08/06 07:30:30;;;;;;;27.73;10.57;;;;;;;25.10;45.76;99379.50;5043751;28;20067;-47
2021/08/06 07:32:55;;;;;;;23.08;10.98;;;;;;;25.52;44.48;99371.31;5042753;28;20552;-46
2021/08/06 07:35:23;;;;;;;18.17;10.52;;;;;;;26.04;43.07;99378.09;5040711;28;20037;-49
2021/08/06 07:37:49;;;;;;;16.67;10.30;;;;;;;26.46;41.66;99372.53;5039164;28;20061;-44
2021/08/06 07:40:16;;;;;;;21.63;9.95;;;;;;;26.63;41.07;99374.53;5047132;28;20445;-48
2021/08/06 07:42:41;;;;;;;23.17;10.57;;;;;;;26.60;41.23;99369.53;5049646;28;20025;-50
2021/08/06 07:45:07;;;;;;;23.60;10.02;;;;;;;26.65;41.25;99377.88;5052260;28;20031;-50
2021/08/06 07:47:33;;;;;;;18.25;9.55;;;;;;;27.03;40.38;99362.78;5052145;28;20465;-45
2021/08/06 07:49:58;;;;;;;23.75;10.23;;;;;;;27.54;39.41;99367.59;5052735;28;20029;-50
2021/08/06 07:52:24;;;;;;;18.83;10.32;;;;;;;27.71;38.80;99364.03;5052552;28;20373;-48
2021/08/06 07:54:50;;;;;;;19.63;9.68;;;;;;;27.85;38.45;99362.63;5049564;28;20377;-50
2021/08/06 07:57:15;;;;;;;19.92;8.95;;;;;;;28.06;37.86;99351.94;5055085;28;20388;-46
2021/08/06 07:59:41;;;;;;;17.13;10.90;;;;;;;28.05;38.11;99353.03;5062693;28;20079;-45
2021/08/06 08:02:07;;;;;;;22.77;10.07;;;;;;;27.84;38.92;99363.72;5063647;28;20036;-50
2021/08/06 08:04:33;;;;;;;22.48;10.43;;;;;;;27.45;39.46;99336.06;5056553;28;20037;-47
2021/08/06 08:07:01;;;;;;;25.30;10.80;;;;;;;27.14;40.28;99349.25;5042274;28;20159;-51
2021/08/06 08:09:26;;;;;;;23.90;10.52;;;;;;;26.76;41.05;99338.56;5065052;28;20127;-46
2021/08/06 08:11:52;;;;;;;22.05;10.05;;;;;;;26.54;41.40;99356.78;5044848;28;20036;-46
2021/08/06 08:14:17;;;;;;;18.55;9.55;;;;;;;26.28;42.33;99354.28;5057958;28;20583;-48
2021/08/06 08:16:43;;;;;;;26.00;9.52;;;;;;;26.11;42.07;99354.16;5054307;28;20036;-47
2021/08/06 08:19:08;;;;;;;11.93;8.68;;;;;;;25.98;42.72;99348.88;5065116;28;20028;-52
2021/08/06 08:21:34;;;;;;;15.32;8.82;;;;;;;25.75;42.97;99345.91;5056345;28;20484;-51
2021/08/06 08:23:59;;;;;;;12.75;9.43;;;;;;;25.62;43.75;99346.09;5058944;28;20070;-50
2021/08/06 08:26:25;;;;;;;18.58;9.85;;;;;;;25.45;44.14;99351.38;5065280;28;20024;-54
2021/08/06 08:28:51;;;;;;;26.33;10.35;;;;;;;25.35;44.46;99351.94;5054837;28;20384;-53
2021/08/06 08:31:17;;;;;;;17.52;9.50;;;;;;;25.37;44.47;99353.41;5055381;28;20028;-46
2021/08/06 08:33:44;;;;;;;14.43;9.60;;;;;;;25.46;44.23;99348.44;5063117;28;20143;-48
2021/08/06 08:36:09;;;;;;;21.67;11.23;;;;;;;25.57;43.62;99355.03;5063103;28;20072;-48
2021/08/06 08:39:00;;;;;;;24.77;12.23;;;;;;;25.84;43.55;99370.22;5055809;28;20068;-52
2021/08/06 08:41:26;;;;;;;24.98;11.68;;;;;;;25.68;44.30;99360.78;5035608;28;20033;-50
2021/08/06 08:43:54;;;;;;;19.25;11.13;;;;;;;25.80;43.86;99353.38;5039083;28;20449;-53
2021/08/06 08:46:25;;;;;;;20.08;11.40;;;;;;;26.16;43.02;99354.28;5043695;28;20536;-55
2021/08/06 08:48:52;;;;;;;19.05;11.02;;;;;;;26.29;42.01;99341.41;5049095;28;20085;-57
2021/08/06 08:51:18;;;;;;;18.77;10.68;;;;;;;26.50;41.88;99350.94;5045729;28;20500;-52
2021/08/06 08:53:44;;;;;;;19.40;10.35;;;;;;;26.72;40.31;99342.88;5047903;28;20036;-49
2021/08/06 08:56:09;;;;;;;18.45;10.60;;;;;;;27.21;39.60;99338.91;5057064;28;20043;-55
2021/08/06 08:58:38;;;;;;;17.70;10.57;;;;;;;27.70;39.01;99351.34;5038127;28;20060;-52
2021/08/06 09:01:04;;;;;;;18.48;10.90;;;;;;;27.79;38.33;99344.38;5056900;28;20024;-46
2021/08/06 09:03:48;;;;;;;19.17;11.20;;;;;;;28.22;38.12;99353.03;5053949;28;20035;-60
2021/08/06 09:06:15;;;;;;;19.33;11.48;;;;;;;28.15;37.33;99344.94;5058488;28;20111;-52
2021/08/06 09:08:41;;;;;;;22.15;10.77;;;;;;;28.22;37.40;99345.63;5046175;28;20029;-48
2021/08/06 09:11:30;;;;;;;19.45;12.15;;;;;;;28.55;37.60;99350.47;5062109;28;20361;-53
2021/08/06 09:14:19;;;;;;;20.85;12.52;;;;;;;28.57;37.53;99342.78;5054605;28;20048;-51
2021/08/06 09:16:57;;;;;;;19.17;10.63;;;;;;;28.54;37.63;99348.81;5052289;28;20037;-53
2021/08/06 09:19:28;;;;;;;12.40;8.93;;;;;;;28.25;36.75;99354.47;5064493;28;20041;-48
2021/08/06 09:22:24;;;;;;;13.05;7.88;;;;;;;28.30;37.11;99352.59;5059171;28;20150;-52
2021/08/06 09:25:06;;;;;;;14.05;7.97;;;;;;;28.00;37.54;99356.53;5051257;28;20033;-50
2021/08/06 09:27:34;;;;;;;15.70;8.27;;;;;;;27.39;38.13;99359.03;5063110;28;20041;-51
2021/08/06 09:30:01;;;;;;;20.75;8.30;;;;;;;26.83;39.15;99351.34;5060904;28;20056;-62
2021/08/06 09:32:27;;;;;;;14.02;8.52;;;;;;;26.46;40.36;99356.06;5055661;28;20033;-52
2021/08/06 09:34:53;;;;;;;13.35;8.35;;;;;;;26.30;41.02;99359.56;5053718;28;20119;-55
2021/08/06 09:37:21;;;;;;;10.60;8.02;;;;;;;26.23;41.37;99354.19;5064758;28;20104;-51
2021/08/06 09:39:55;;;;;;;13.93;7.80;;;;;;;26.31;41.49;99380.44;5058692;28;20107;-50
2021/08/06 09:42:24;;;;;;;14.60;7.85;;;;;;;26.12;42.03;99391.47;5054681;28;20029;-50
2021/08/06 09:45:00;;;;;;;13.77;8.23;;;;;;;26.15;42.03;99374.53;5048752;28;20512;-54
2021/08/06 09:47:27;;;;;;;17.70;8.85;;;;;;;25.88;43.09;99385.97;5063183;28;20032;-51
2021/08/06 09:49:55;;;;;;;15.20;9.43;;;;;;;25.78;43.65;99392.03;5059385;28;20032;-52
2021/08/06 09:52:32;;;;;;;14.77;7.65;;;;;;;25.71;43.55;99377.59;5055753;28;20851;-51
2021/08/06 09:54:58;;;;;;;15.45;8.18;;;;;;;25.49;43.81;99380.88;5063471;28;20139;-49
2021/08/06 09:57:24;;;;;;;11.95;6.88;;;;;;;25.40;44.50;99392.38;5062666;28;20469;-54
2021/08/06 09:59:55;;;;;;;10.95;6.97;;;;;;;25.43;43.94;99389.16;5058654;28;20032;-53
2021/08/06 10:02:27;;;;;;;17.55;8.73;;;;;;;25.14;45.10;99377.97;5056219;28;20033;-51
2021/08/06 10:05:01;;;;;;;19.70;9.57;;;;;;;25.16;45.30;99395.81;5065451;28;20119;-49
2021/08/06 10:07:29;;;;;;;17.88;9.30;;;;;;;24.90;45.60;99372.38;5037703;28;20028;-70
2021/08/06 10:09:55;;;;;;;14.45;8.20;;;;;;;24.84;46.53;99384.22;5039481;28;20032;-63
2021/08/06 10:12:21;;;;;;;15.90;10.90;;;;;;;24.69;47.65;99393.63;5048142;28;20489;-51
2021/08/06 10:14:47;;;;;;;11.82;8.70;;;;;;;24.65;48.76;99389.69;5064876;28;20048;-53
2021/08/06 10:17:13;;;;;;;14.85;9.25;;;;;;;24.58;49.17;99397.09;5040862;28;20039;-50
2021/08/06 10:19:39;;;;;;;13.40;9.70;;;;;;;24.52;49.94;99386.00;5062127;28;20045;-52
2021/08/06 10:22:06;;;;;;;14.15;9.07;;;;;;;24.48;50.45;99389.44;5060980;28;20051;-51
2021/08/06 10:24:34;;;;;;;16.40;8.90;;;;;;;24.39;50.91;99394.38;5054809;28;20033;-58
2021/08/06 10:27:00;;;;;;;15.02;8.52;;;;;;;24.27;51.32;99385.22;5054108;28;20063;-49
2021/08/06 10:29:26;;;;;;;15.15;10.13;;;;;;;24.05;51.65;99400.13;5063613;28;20365;-51
2021/08/06 10:32:14;;;;;;;14.27;9.30;;;;;;;24.05;51.22;99400.13;5057991;28;20031;-51
2021/08/06 10:35:18;;;;;;;14.25;10.23;;;;;;;23.90;52.00;99405.06;5048972;28;20033;-50
2021/08/06 10:37:55;;;;;;;16.10;11.18;;;;;;;23.65;53.83;99406.72;5051699;28;20028;-53
2021/08/06 10:40:33;;;;;;;18.10;12.05;;;;;;;23.54;54.56;99398.38;5047206;28;20044;-53
2021/08/06 10:43:11;;;;;;;13.43;10.65;;;;;;;23.47;55.64;99404.69;5058592;28;20120;-54
2021/08/06 10:45:56;;;;;;;13.25;10.20;;;;;;;23.46;56.06;99413.97;5044126;28;20621;-53
2021/08/06 10:48:31;;;;;;;15.40;11.07;;;;;;;23.43;55.91;99398.00;5045042;28;20469;-53
2021/08/06 10:51:11;;;;;;;16.60;11.30;;;;;;;23.52;55.75;99404.06;5069325;28;20497;-52
2021/08/06 10:53:38;;;;;;;11.43;9.80;;;;;;;23.43;56.34;99400.75;5060352;28;20037;-50
2021/08/06 10:56:15;;;;;;;13.18;10.02;;;;;;;23.70;54.82;99406.03;5061680;28;20029;-55
2021/08/06 10:58:47;;;;;;;13.02;8.68;;;;;;;23.72;53.90;99401.19;5041863;28;20041;-50
2021/08/06 11:04:03;;;;;;;11.95;9.73;;;;;;;23.69;54.07;99400.81;5062662;28;20112;-52
2021/08/06 11:06:37;;;;;;;14.45;8.88;;;;;;;23.47;54.62;99395.69;5067998;28;20059;-52
2021/08/06 11:09:08;;;;;;;11.02;9.55;;;;;;;23.41;55.49;99391.94;5046743;28;20147;-52
2021/08/06 11:11:58;;;;;;;17.10;10.55;;;;;;;23.40;55.45;99375.78;5066018;28;20103;-67
2021/08/06 11:14:32;;;;;;;17.42;11.15;;;;;;;23.28;56.98;99375.63;5052490;28;20056;-54
2021/08/06 11:17:18;;;;;;;14.88;10.82;;;;;;;23.24;56.17;99388.84;5069324;28;20043;-54
2021/08/06 11:19:53;;;;;;;13.70;9.98;;;;;;;23.02;57.16;99383.69;5060257;28;20032;-56
2021/08/06 11:22:31;;;;;;;13.10;10.95;;;;;;;23.19;57.13;99397.69;5059665;28;20033;-55
2021/08/06 11:25:07;;;;;;;25.90;13.00;;;;;;;23.18;57.30;99384.25;5069225;28;20028;-57
2021/08/06 11:27:35;;;;;;;15.75;11.57;;;;;;;23.13;58.29;99375.88;5059927;28;20029;-58